Terminal Aerodrome Forecast
Issued by NWS

Home | Current Version | Previous Version | Text Only | Print | Product List | Glossary On
Versions: 1 2 3 4 5 6 7 8 9 10 11 12 13 14 15 16 17 18 19 20 21 22 23 24 25
000
FTUS42 KJAX 230200 AAA
TAFCRG
TAF AMD
KCRG 230201Z 2302/2324 12006KT P6SM -RA VCTS SCT004 BKN020CB OVC030
      TEMPO 2303/2306 2SM +TSRA BR
     FM230600 15006KT 6SM BR SCT004 BKN015 OVC030
     FM230900 18005KT 4SM BR OVC004
     FM231300 18008KT 6SM BR BKN005 BKN040 BKN090
     FM231500 18010KT P6SM BKN020 BKN090 BKN200=

USA.gov is the U.S. government's official web portal to all federal, state and local government web resources and services.